Time;durP1;ratioP1;P1;durP2;ratioP2;P2;SDS_P1;SDS_P2;PMS_P1;PMS_P2;Temp;Humidity;BMP_temperature;BMP_pressure;BME280_temperature;BME280_humidity;BME280_pressure;Samples;Min_cycle;Max_cycle;Signal;HPM_P1;HPM_P2
2023/07/07 00:02:45;;;;;;;4.40;2.97;;;;;;;19.87;46.75;98958.47;6946433;28;20326;-86
2023/07/07 00:06:06;;;;;;;3.73;3.37;;;;;;;20.07;46.78;98989.59;6945746;28;20748;-86
2023/07/07 00:09:28;;;;;;;6.73;3.07;;;;;;;19.93;46.76;98988.34;6945857;28;20318;-86
2023/07/07 00:12:51;;;;;;;3.93;3.53;;;;;;;19.23;47.91;98960.28;6946438;28;20342;-86
2023/07/07 00:16:13;;;;;;;3.67;3.37;;;;;;;19.64;47.65;98988.91;6945552;28;20315;-86
2023/07/07 00:19:36;;;;;;;3.97;3.50;;;;;;;19.60;47.55;98982.28;6946119;28;20589;-86
2023/07/07 00:22:58;;;;;;;4.73;3.10;;;;;;;19.08;47.47;98899.97;6946117;28;20216;-86
2023/07/07 00:26:21;;;;;;;4.90;3.30;;;;;;;19.99;46.71;98990.03;6944918;28;20227;-86
2023/07/07 00:29:44;;;;;;;5.17;3.80;;;;;;;19.67;47.51;98996.56;6945756;28;20719;-86
2023/07/07 00:33:05;;;;;;;4.10;3.47;;;;;;;19.35;47.01;98943.75;6945970;28;20298;-88
2023/07/07 00:36:46;;;;;;;4.20;3.50;;;;;;;19.52;47.48;98994.50;6943794;28;20710;-86
2023/07/07 00:40:08;;;;;;;4.07;3.67;;;;;;;19.13;48.42;98975.72;6945616;28;20801;-86
2023/07/07 00:43:30;;;;;;;5.93;3.43;;;;;;;19.41;48.27;98989.22;6945474;28;20267;-86
2023/07/07 00:46:53;;;;;;;3.57;3.27;;;;;;;19.63;47.28;98981.78;6944437;28;20231;-86
2023/07/07 00:50:17;;;;;;;3.90;3.47;;;;;;;19.23;48.17;98962.22;6945039;28;20227;-87
2023/07/07 00:53:41;;;;;;;4.53;3.37;;;;;;;19.47;47.54;98997.22;6945414;28;20298;-86
2023/07/07 00:57:04;;;;;;;5.87;3.27;;;;;;;19.25;47.49;98992.84;6944641;28;20344;-86
2023/07/07 01:00:25;;;;;;;4.47;3.97;;;;;;;18.22;49.68;98942.78;6944712;28;20203;-86
2023/07/07 01:04:02;;;;;;;4.57;3.60;;;;;;;18.98;49.40;98989.22;6941221;28;20275;-87
2023/07/07 01:07:28;;;;;;;4.57;3.37;;;;;;;19.02;48.25;98969.31;6930644;28;20223;-86
2023/07/07 01:10:49;;;;;;;3.83;2.97;;;;;;;19.04;48.77;98983.53;6944843;28;20561;-86
2023/07/07 01:14:14;;;;;;;4.10;3.77;;;;;;;18.84;48.95;98996.13;6944724;28;20207;-86
2023/07/07 01:17:42;;;;;;;3.80;3.50;;;;;;;18.28;49.66;98945.34;6944265;28;20227;-86
2023/07/07 01:21:12;;;;;;;3.90;3.60;;;;;;;18.85;49.13;98995.03;6944137;28;20244;-86
2023/07/07 01:24:52;;;;;;;4.10;3.20;;;;;;;19.00;48.82;99001.56;6944005;28;20227;-86
2023/07/07 01:28:37;;;;;;;3.57;3.27;;;;;;;19.00;48.28;99011.66;6943716;28;20231;-86
2023/07/07 01:32:06;;;;;;;4.13;3.33;;;;;;;18.88;48.50;98978.97;6944297;28;20724;-86
2023/07/07 01:35:47;;;;;;;6.20;3.67;;;;;;;18.61;49.55;99002.66;6942328;28;20196;-86
2023/07/07 01:39:10;;;;;;;4.73;3.60;;;;;;;18.60;49.56;99019.28;6943905;28;20650;-86
2023/07/07 01:42:34;;;;;;;3.77;3.47;;;;;;;18.43;48.92;98981.09;6943714;28;20200;-86
2023/07/07 01:45:59;;;;;;;5.20;3.70;;;;;;;18.87;48.78;99014.75;6943567;28;20227;-86
2023/07/07 01:49:27;;;;;;;4.27;3.57;;;;;;;18.44;48.75;98952.69;6943518;28;20241;-86
2023/07/07 01:52:52;;;;;;;3.80;3.50;;;;;;;18.45;49.48;98978.13;6944218;28;20278;-86
2023/07/07 01:56:27;;;;;;;3.63;3.33;;;;;;;18.78;48.69;99006.16;6942071;28;20229;-86
2023/07/07 01:59:49;;;;;;;5.03;3.63;;;;;;;18.55;49.83;99011.00;6943767;28;20598;-86
2023/07/07 02:03:11;;;;;;;5.43;3.50;;;;;;;18.79;48.88;99016.00;6943169;28;20226;-86
2023/07/07 02:06:34;;;;;;;4.40;4.00;;;;;;;17.81;50.47;99009.50;6942585;28;20317;-86
2023/07/07 02:09:56;;;;;;;4.23;3.80;;;;;;;18.16;50.10;99012.84;6943023;28;20207;-86
2023/07/07 02:13:17;;;;;;;4.57;3.87;;;;;;;18.13;50.58;98996.97;6942802;28;20249;-86
2023/07/07 02:16:39;;;;;;;4.57;3.97;;;;;;;18.26;50.09;99006.72;6942209;28;20268;-86
2023/07/07 02:20:00;;;;;;;3.87;3.37;;;;;;;18.25;49.97;99002.31;6942727;28;20208;-86
2023/07/07 02:23:23;;;;;;;4.90;3.30;;;;;;;18.52;48.76;99006.88;6942815;28;20662;-86
2023/07/07 02:26:45;;;;;;;3.70;3.20;;;;;;;18.16;50.66;99004.66;6941876;28;20276;-86
2023/07/07 02:30:07;;;;;;;9.10;3.73;;;;;;;18.17;50.32;98994.56;6942799;28;20199;-86
2023/07/07 02:33:31;;;;;;;4.60;3.50;;;;;;;18.39;49.89;99001.78;6942838;28;20215;-86
2023/07/07 02:36:53;;;;;;;4.30;3.17;;;;;;;18.45;49.00;98997.22;6941550;28;20254;-86
2023/07/07 02:40:16;;;;;;;4.87;3.63;;;;;;;17.84;50.54;99019.09;6942638;28;20198;-86
2023/07/07 02:43:38;;;;;;;5.30;3.33;;;;;;;18.14;50.39;98998.63;6942882;28;20333;-86
2023/07/07 02:46:59;;;;;;;5.27;3.57;;;;;;;17.87;50.93;99007.72;6943703;28;20373;-86
2023/07/07 02:50:21;;;;;;;4.63;3.50;;;;;;;18.03;50.47;99001.41;6944223;28;20670;-86
2023/07/07 02:53:42;;;;;;;10.63;4.27;;;;;;;17.94;50.53;98978.38;6942860;28;20215;-86
2023/07/07 02:57:07;;;;;;;4.30;3.90;;;;;;;17.82;51.37;98994.78;6942108;28;20634;-86
2023/07/07 03:00:28;;;;;;;3.93;3.47;;;;;;;18.04;50.45;98990.25;6942796;28;20554;-86
2023/07/07 03:03:51;;;;;;;4.43;3.97;;;;;;;17.34;50.97;98922.75;6941941;28;20207;-88
2023/07/07 03:07:13;;;;;;;4.03;3.70;;;;;;;18.06;50.20;99003.66;6936658;28;20288;-86
2023/07/07 03:10:36;;;;;;;6.17;4.17;;;;;;;17.67;51.25;98982.78;6942119;28;20268;-86
2023/07/07 03:13:59;;;;;;;5.10;3.50;;;;;;;17.16;51.45;98926.50;6942061;28;20297;-86
2023/07/07 03:17:20;;;;;;;4.27;3.63;;;;;;;17.90;50.30;98999.88;6942201;28;20772;-86
2023/07/07 03:20:47;;;;;;;3.87;3.27;;;;;;;17.57;51.04;99007.97;6941929;28;20207;-86
2023/07/07 03:24:08;;;;;;;4.40;3.90;;;;;;;17.20;51.10;98932.28;6942199;28;20182;-86
2023/07/07 03:27:30;;;;;;;5.50;3.83;;;;;;;17.38;51.04;98954.75;6941707;28;20326;-86
2023/07/07 03:30:53;;;;;;;4.37;3.67;;;;;;;17.80;50.40;99029.69;6943667;28;20680;-86
2023/07/07 03:34:14;;;;;;;5.50;4.40;;;;;;;17.82;50.82;99032.97;6940096;28;20290;-86
2023/07/07 03:37:37;;;;;;;4.57;3.70;;;;;;;17.59;50.31;98985.94;6943804;28;20349;-86
2023/07/07 03:40:58;;;;;;;4.40;4.00;;;;;;;16.40;52.36;98936.09;6948060;28;20250;-86
2023/07/07 03:44:20;;;;;;;4.60;3.47;;;;;;;17.16;52.60;99034.69;6947553;28;20341;-86
2023/07/07 03:47:44;;;;;;;3.90;3.60;;;;;;;17.19;51.70;99004.22;6947582;28;20271;-87
2023/07/07 03:51:05;;;;;;;5.20;3.70;;;;;;;17.09;50.69;98963.13;6947819;28;20293;-87
2023/07/07 03:54:27;;;;;;;4.70;4.30;;;;;;;17.37;51.49;99031.28;6947658;28;20349;-87
2023/07/07 03:57:48;;;;;;;4.00;3.60;;;;;;;17.55;50.69;99047.47;6946766;28;20260;-87
2023/07/07 04:01:13;;;;;;;7.33;4.27;;;;;;;16.42;53.88;99061.88;6947047;28;20259;-87
2023/07/07 04:04:36;;;;;;;3.40;3.10;;;;;;;17.15;52.68;99063.00;6947418;28;20207;-88
2023/07/07 04:07:57;;;;;;;3.97;3.53;;;;;;;17.32;52.30;99066.59;6947881;28;20320;-87
2023/07/07 04:11:21;;;;;;;4.17;3.70;;;;;;;17.56;51.79;99065.47;6953347;28;20297;-86
2023/07/07 04:14:42;;;;;;;4.60;3.93;;;;;;;17.64;51.89;99052.28;6973914;28;20210;-87
2023/07/07 04:18:04;;;;;;;4.53;3.50;;;;;;;17.52;51.61;99072.50;6972457;28;20223;-87
2023/07/07 04:21:28;;;;;;;6.77;3.80;;;;;;;17.82;51.10;99075.81;6971859;28;20230;-87
2023/07/07 04:25:08;;;;;;;3.90;3.50;;;;;;;17.77;50.70;99078.44;6973572;28;20205;-86
2023/07/07 04:28:30;;;;;;;3.93;3.37;;;;;;;17.82;50.85;99073.09;6970111;28;20222;-87
2023/07/07 04:31:51;;;;;;;6.90;3.87;;;;;;;17.83;50.80;99066.56;6947515;28;20586;-87
2023/07/07 04:35:13;;;;;;;5.63;3.80;;;;;;;17.83;50.90;99063.81;6947044;28;20206;-87
2023/07/07 04:38:37;;;;;;;5.60;3.83;;;;;;;18.09;50.88;99063.19;6951852;28;20233;-88
2023/07/07 04:41:58;;;;;;;4.60;3.87;;;;;;;17.50;51.33;99001.03;6947256;28;20245;-87
2023/07/07 04:45:20;;;;;;;4.33;3.87;;;;;;;17.92;50.78;99057.72;6945569;28;20238;-88
2023/07/07 04:48:41;;;;;;;4.13;3.57;;;;;;;18.33;50.55;99075.66;6944811;28;20284;-88
2023/07/07 04:52:04;;;;;;;5.27;3.97;;;;;;;18.41;50.03;99037.03;6945910;28;20259;-87
2023/07/07 04:55:27;;;;;;;4.20;3.70;;;;;;;18.89;48.67;99005.22;6945655;28;20210;-87
2023/07/07 04:58:51;;;;;;;5.37;3.83;;;;;;;19.29;48.13;99076.81;6945179;28;20273;-87
2023/07/07 05:02:12;;;;;;;4.50;4.10;;;;;;;18.89;48.82;99084.47;6945454;28;20212;-87
2023/07/07 05:05:40;;;;;;;6.37;3.50;;;;;;;19.71;46.96;99077.91;6937890;28;20234;-84
2023/07/07 05:09:03;;;;;;;4.70;3.50;;;;;;;19.95;45.99;99020.94;6945521;28;20226;-85
2023/07/07 05:12:26;;;;;;;5.53;3.60;;;;;;;20.23;46.04;99073.50;6945651;28;20576;-84
2023/07/07 05:15:48;;;;;;;4.03;3.60;;;;;;;20.04;45.66;98984.59;6944846;28;20736;-85
2023/07/07 05:19:09;;;;;;;5.13;4.00;;;;;;;20.37;45.36;98989.00;6942491;28;20222;-85
2023/07/07 05:22:31;;;;;;;6.07;3.70;;;;;;;21.18;43.90;99075.03;6944849;28;20293;-86
2023/07/07 05:25:53;;;;;;;4.43;3.83;;;;;;;21.74;42.39;99063.25;6929065;28;20566;-85
2023/07/07 05:29:15;;;;;;;5.77;3.50;;;;;;;21.94;42.35;99074.25;6944247;28;20317;-85
2023/07/07 05:32:37;;;;;;;5.20;3.37;;;;;;;22.52;41.29;99065.53;6944582;28;20294;-85
2023/07/07 05:36:00;;;;;;;4.43;3.30;;;;;;;23.04;40.00;99066.03;6943757;28;20300;-85
2023/07/07 05:39:22;;;;;;;3.90;3.47;;;;;;;22.30;40.43;98985.28;6945250;28;20293;-85
2023/07/07 05:42:43;;;;;;;7.33;3.70;;;;;;;22.48;41.14;99047.16;6945381;28;20731;-85
2023/07/07 05:46:07;;;;;;;4.93;3.90;;;;;;;22.80;40.55;99069.63;6944654;28;20681;-85
2023/07/07 05:49:29;;;;;;;4.00;3.37;;;;;;;22.43;41.31;99056.19;6944198;28;20328;-85
2023/07/07 05:52:50;;;;;;;6.10;4.00;;;;;;;23.02;40.84;99057.19;6944846;28;20904;-85
2023/07/07 05:56:14;;;;;;;4.50;3.70;;;;;;;23.62;40.34;99048.78;6944071;28;20417;-86
2023/07/07 05:59:36;;;;;;;7.13;3.87;;;;;;;23.98;38.77;98981.38;6944257;28;20710;-86
2023/07/07 06:02:59;;;;;;;4.80;3.80;;;;;;;24.05;39.01;99067.25;6944745;28;20210;-85
2023/07/07 06:06:21;;;;;;;4.53;3.50;;;;;;;23.98;39.03;99063.19;6944232;28;20272;-86
2023/07/07 06:09:49;;;;;;;5.17;3.77;;;;;;;24.47;37.57;99019.78;6944129;28;20321;-85
2023/07/07 06:13:11;;;;;;;6.70;3.60;;;;;;;25.40;34.96;99056.94;6952138;28;20202;-86
2023/07/07 06:16:32;;;;;;;5.47;3.90;;;;;;;26.48;34.02;99055.66;6943356;28;20615;-83
2023/07/07 06:19:55;;;;;;;3.93;3.20;;;;;;;26.35;33.67;99000.31;6945544;28;20294;-83
2023/07/07 06:23:17;;;;;;;4.40;4.00;;;;;;;26.58;34.12;99057.47;6943708;28;20294;-86
2023/07/07 06:26:38;;;;;;;3.57;3.27;;;;;;;26.67;33.08;99062.00;6943182;28;20228;-87
2023/07/07 06:30:00;;;;;;;5.43;3.53;;;;;;;25.85;33.47;98981.75;6943842;28;20203;-85
2023/07/07 06:33:22;;;;;;;5.30;3.20;;;;;;;27.29;32.66;99064.19;6943392;28;20231;-85
2023/07/07 06:36:45;;;;;;;3.80;3.23;;;;;;;27.09;32.63;98986.22;6942728;28;20638;-86
2023/07/07 06:40:07;;;;;;;6.10;3.63;;;;;;;26.42;33.60;99067.94;6943091;28;20264;-86
2023/07/07 06:43:40;;;;;;;5.80;3.80;;;;;;;25.97;34.55;99005.09;6943642;28;20361;-87
2023/07/07 06:47:02;;;;;;;4.60;3.47;;;;;;;27.68;33.13;99069.22;6942269;28;20300;-86
2023/07/07 06:50:33;;;;;;;3.70;3.40;;;;;;;27.93;31.43;99000.22;6947176;28;20292;-86
2023/07/07 06:53:56;;;;;;;5.03;3.77;;;;;;;28.57;31.44;99066.34;6958823;28;20200;-86
2023/07/07 06:57:18;;;;;;;5.17;3.90;;;;;;;29.32;29.59;99056.00;6966455;28;20223;-87
2023/07/07 07:00:39;;;;;;;5.47;3.67;;;;;;;29.35;29.33;99013.72;6946045;28;20289;-86
2023/07/07 07:04:01;;;;;;;4.27;3.87;;;;;;;29.32;29.87;99014.34;6944008;28;20231;-86
2023/07/07 07:07:25;;;;;;;5.37;4.50;;;;;;;29.75;29.94;99070.91;6927961;28;20236;-85
2023/07/07 07:10:48;;;;;;;4.30;3.70;;;;;;;29.67;30.43;99004.19;6916811;28;20207;-85
2023/07/07 07:14:09;;;;;;;5.27;4.10;;;;;;;29.71;29.69;99074.69;6917014;28;20264;-85
2023/07/07 07:17:31;;;;;;;5.60;4.80;;;;;;;28.92;29.75;99056.28;6928650;28;20312;-85
2023/07/07 07:20:54;;;;;;;5.07;4.20;;;;;;;29.09;30.31;99065.56;6946226;28;20708;-85
2023/07/07 07:24:18;;;;;;;5.13;4.10;;;;;;;28.70;30.77;99054.34;6943865;28;20683;-87
2023/07/07 07:27:41;;;;;;;5.00;3.73;;;;;;;29.11;30.93;99059.69;6942644;28;20291;-86
2023/07/07 07:31:03;;;;;;;5.20;4.30;;;;;;;28.79;30.84;99041.34;6943481;28;20268;-87
2023/07/07 07:34:28;;;;;;;6.07;4.10;;;;;;;29.31;30.91;99076.59;6944067;28;20677;-86
2023/07/07 07:37:49;;;;;;;4.40;4.00;;;;;;;29.45;31.05;99068.16;6942797;28;20251;-86
2023/07/07 07:41:11;;;;;;;4.30;3.90;;;;;;;30.21;29.72;99062.84;6942472;28;20210;-87
2023/07/07 07:44:33;;;;;;;4.50;3.80;;;;;;;30.46;28.59;99064.81;6941702;28;20253;-89
2023/07/07 07:47:55;;;;;;;4.40;4.00;;;;;;;31.55;27.86;99072.44;6939706;28;20321;-89
2023/07/07 07:51:16;;;;;;;4.70;4.30;;;;;;;31.10;28.65;99069.31;6941519;28;20204;-87
2023/07/07 07:54:38;;;;;;;4.67;4.27;;;;;;;31.16;28.17;99069.94;6941869;28;20217;-87
2023/07/07 07:58:00;;;;;;;6.83;4.27;;;;;;;32.12;26.97;99054.88;6941898;28;20219;-87
2023/07/07 08:01:23;;;;;;;4.53;4.07;;;;;;;31.06;27.93;98954.13;6940734;28;20638;-88
2023/07/07 08:04:45;;;;;;;7.70;4.60;;;;;;;32.45;26.40;99058.59;6940597;28;20255;-88
2023/07/07 08:08:11;;;;;;;5.57;4.10;;;;;;;31.99;27.12;99058.75;6935515;28;20359;-87
2023/07/07 08:12:04;;;;;;;4.60;3.93;;;;;;;31.97;27.98;99057.47;6940061;28;20328;-88
2023/07/07 08:15:25;;;;;;;5.17;4.50;;;;;;;32.39;26.67;99054.38;6941506;28;20629;-88
2023/07/07 08:18:48;;;;;;;5.40;4.53;;;;;;;31.50;28.52;99056.72;6945371;28;20314;-88
2023/07/07 08:22:14;;;;;;;5.90;3.73;;;;;;;31.52;27.98;99036.84;6946026;28;20302;-88
2023/07/07 08:25:38;;;;;;;5.53;4.33;;;;;;;32.45;27.36;99058.59;6946648;28;20810;-88
2023/07/07 08:28:59;;;;;;;6.93;4.23;;;;;;;32.31;27.45;99060.84;6946444;28;20238;-88
2023/07/07 08:32:26;;;;;;;4.63;4.17;;;;;;;34.04;25.39;99052.66;6944984;28;20260;-88
2023/07/07 08:35:49;;;;;;;4.73;4.23;;;;;;;34.31;24.26;99053.91;6945155;28;20199;-88
2023/07/07 08:39:13;;;;;;;4.80;4.30;;;;;;;34.13;24.15;98985.34;6945395;28;20227;-88
2023/07/07 08:42:47;;;;;;;6.53;4.60;;;;;;;34.70;23.68;99041.84;6927222;28;20203;-88
2023/07/07 08:46:12;;;;;;;5.90;4.57;;;;;;;35.33;23.32;99043.63;6918317;28;20342;-87
2023/07/07 08:49:37;;;;;;;6.57;4.60;;;;;;;34.81;23.80;99054.19;6919437;28;20231;-86
2023/07/07 08:53:09;;;;;;;5.43;4.50;;;;;;;35.31;23.34;99052.41;6918789;28;20711;-86
2023/07/07 08:56:34;;;;;;;5.20;4.70;;;;;;;34.66;22.12;99018.53;6917696;28;20195;-87
2023/07/07 09:00:05;;;;;;;6.33;4.93;;;;;;;35.05;22.24;99042.84;6935489;28;20250;-87
2023/07/07 09:03:38;;;;;;;5.60;5.00;;;;;;;34.92;22.09;99044.09;6945773;28;20638;-86
2023/07/07 09:07:13;;;;;;;5.97;5.37;;;;;;;34.42;22.26;98985.81;6943688;28;20318;-86
2023/07/07 09:10:39;;;;;;;5.30;4.80;;;;;;;34.37;20.43;99041.28;6945362;28;20285;-86
2023/07/07 09:14:01;;;;;;;5.67;5.17;;;;;;;35.43;19.59;99043.88;6945037;28;20199;-86
2023/07/07 09:17:26;;;;;;;5.77;5.27;;;;;;;35.52;18.94;99043.72;6939084;28;20757;-86
2023/07/07 09:20:53;;;;;;;7.60;5.97;;;;;;;35.54;18.60;99024.53;6944347;28;20195;-86
2023/07/07 09:24:18;;;;;;;5.93;5.33;;;;;;;35.44;17.92;99039.91;6917532;28;20257;-86
2023/07/07 09:27:44;;;;;;;8.03;5.67;;;;;;;35.70;18.63;99028.97;6916102;28;20370;-86
2023/07/07 09:31:10;;;;;;;7.57;5.33;;;;;;;35.70;19.01;99022.53;6933051;28;20234;-86
2023/07/07 09:34:33;;;;;;;6.63;5.60;;;;;;;35.22;19.00;99026.50;6944764;28;20212;-86
2023/07/07 09:38:04;;;;;;;6.37;5.47;;;;;;;35.83;19.15;98996.00;6944471;28;20265;-86
2023/07/07 09:41:33;;;;;;;7.80;5.97;;;;;;;35.17;20.02;98969.88;6944623;28;20563;-86
2023/07/07 09:45:06;;;;;;;6.73;5.10;;;;;;;35.51;20.36;99008.41;6944944;28;20281;-87
2023/07/07 09:48:34;;;;;;;7.23;5.40;;;;;;;35.59;20.94;99007.41;6934869;28;20283;-85
2023/07/07 09:52:01;;;;;;;6.57;5.60;;;;;;;35.26;20.66;98968.53;6943753;28;20278;-86
2023/07/07 09:55:27;;;;;;;6.47;5.87;;;;;;;35.55;20.42;98992.50;6944680;28;20201;-85
2023/07/07 09:58:53;;;;;;;8.40;6.40;;;;;;;35.67;19.99;98990.38;6944961;28;20369;-89
2023/07/07 10:02:18;;;;;;;6.80;5.67;;;;;;;36.68;18.57;98996.69;6946583;28;20198;-86
2023/07/07 10:05:40;;;;;;;8.10;6.60;;;;;;;36.58;19.04;99000.88;6934642;28;20203;-88
2023/07/07 10:09:03;;;;;;;7.93;6.17;;;;;;;36.44;19.10;98992.16;6943445;28;20246;-88
2023/07/07 10:12:24;;;;;;;8.83;7.70;;;;;;;36.02;18.52;98940.69;6943879;28;20203;-90
2023/07/07 10:15:50;;;;;;;12.40;7.97;;;;;;;35.39;18.88;98997.31;6943539;28;20827;-91
2023/07/07 10:19:14;;;;;;;9.10;8.13;;;;;;;36.15;18.57;98984.31;6945602;28;20269;-84
2023/07/07 10:22:36;;;;;;;9.87;8.17;;;;;;;35.80;18.04;98947.03;6945603;28;20218;-88
2023/07/07 10:25:57;;;;;;;7.87;7.07;;;;;;;36.58;18.13;98984.03;6943573;28;20372;-86
2023/07/07 10:29:22;;;;;;;8.50;6.73;;;;;;;36.64;17.86;98979.75;6943459;28;20730;-87
2023/07/07 10:32:44;;;;;;;7.57;6.80;;;;;;;34.70;19.44;98936.19;6943828;28;20710;-86
2023/07/07 10:36:24;;;;;;;11.63;8.90;;;;;;;35.64;18.42;98988.31;6943785;28;20214;-85
2023/07/07 10:39:50;;;;;;;8.00;7.20;;;;;;;35.73;18.73;98962.91;6931020;28;20782;-84
2023/07/07 10:43:13;;;;;;;10.03;8.23;;;;;;;35.26;18.10;98974.13;6939499;28;20657;-83
2023/07/07 10:46:34;;;;;;;8.83;7.97;;;;;;;35.38;18.60;98976.03;6946919;28;20204;-83
2023/07/07 10:49:57;;;;;;;8.77;7.13;;;;;;;35.95;18.28;98981.84;6955879;28;20267;-84
2023/07/07 10:53:29;;;;;;;8.67;6.80;;;;;;;36.22;17.88;98972.44;6930014;28;20279;-85
2023/07/07 10:56:54;;;;;;;7.73;6.93;;;;;;;36.55;17.23;98976.31;6951961;28;20223;-83
2023/07/07 11:00:32;;;;;;;8.07;7.27;;;;;;;36.08;17.31;98918.75;6950481;28;20203;-84
2023/07/07 11:04:20;;;;;;;9.30;7.80;;;;;;;36.43;16.30;98982.09;6946854;28;20656;-88
2023/07/07 11:07:51;;;;;;;8.43;7.30;;;;;;;37.16;16.60;98965.91;6944166;28;20223;-86
2023/07/07 11:11:25;;;;;;;7.77;6.97;;;;;;;37.84;16.59;98969.41;6952096;28;20221;-85
2023/07/07 11:15:05;;;;;;;8.10;7.10;;;;;;;36.53;17.33;98961.00;6943943;28;20677;-89
2023/07/07 11:18:39;;;;;;;9.10;7.30;;;;;;;36.55;16.89;98942.59;6935510;28;20651;-87
2023/07/07 11:22:10;;;;;;;7.80;7.10;;;;;;;36.76;17.30;98956.28;6942931;28;20210;-87
2023/07/07 11:25:46;;;;;;;8.07;7.17;;;;;;;36.84;17.01;98966.47;6941317;28;20308;-86
2023/07/07 11:29:15;;;;;;;10.07;7.47;;;;;;;35.68;17.00;98963.97;6942029;28;20635;-88
2023/07/07 11:32:40;;;;;;;7.73;7.03;;;;;;;34.62;17.79;98961.56;6941746;28;20252;-85
2023/07/07 11:36:17;;;;;;;7.83;7.03;;;;;;;35.26;18.12;98925.69;6940999;28;20333;-86
2023/07/07 11:39:51;;;;;;;8.57;6.80;;;;;;;36.69;17.34;98962.59;6940597;28;20305;-86
2023/07/07 11:43:32;;;;;;;8.43;7.33;;;;;;;36.71;16.99;98957.41;6941617;28;20223;-88
2023/07/07 11:47:03;;;;;;;8.60;6.90;;;;;;;37.00;16.16;98953.09;6941130;28;20295;-86
2023/07/07 11:50:39;;;;;;;7.43;6.73;;;;;;;36.86;16.53;98953.69;6942042;28;20285;-89
2023/07/07 11:54:12;;;;;;;8.90;7.70;;;;;;;36.43;16.59;98954.00;6945800;28;20183;-87
2023/07/07 11:57:44;;;;;;;7.60;6.83;;;;;;;36.15;16.79;98949.78;6946111;28;20281;-87
2023/07/07 12:01:13;;;;;;;7.80;7.10;;;;;;;37.31;15.04;98955.69;6947982;28;20239;-86
2023/07/07 12:04:42;;;;;;;8.50;7.60;;;;;;;35.45;16.91;98951.78;6947642;28;20297;-88
2023/07/07 12:08:11;;;;;;;8.50;7.67;;;;;;;35.64;16.38;98942.59;6945976;28;20256;-88
2023/07/07 12:11:37;;;;;;;9.37;7.73;;;;;;;36.35;15.94;98937.38;6940548;28;20246;-86
2023/07/07 12:15:02;;;;;;;9.60;7.80;;;;;;;33.10;18.76;98944.03;6947761;28;20198;-85
2023/07/07 12:18:27;;;;;;;9.70;7.70;;;;;;;35.60;16.96;98906.03;6947397;28;20758;-84
2023/07/07 12:21:53;;;;;;;9.17;7.63;;;;;;;36.72;16.36;98944.97;6947576;28;20294;-84
2023/07/07 12:25:23;;;;;;;9.40;8.17;;;;;;;36.69;15.85;98940.13;6948369;28;20195;-83
2023/07/07 12:28:48;;;;;;;9.77;7.90;;;;;;;37.60;15.31;98935.28;6947560;28;20235;-82
2023/07/07 12:32:10;;;;;;;9.10;8.30;;;;;;;37.15;15.96;98930.53;6948263;28;20285;-82
2023/07/07 12:35:36;;;;;;;8.80;7.73;;;;;;;36.16;16.28;98923.31;6948535;28;20264;-83
2023/07/07 12:39:02;;;;;;;9.20;7.87;;;;;;;36.11;16.98;98930.06;6948149;28;20230;-82
2023/07/07 12:42:26;;;;;;;9.87;7.57;;;;;;;37.41;14.98;98924.06;6948341;28;20203;-84
2023/07/07 12:45:48;;;;;;;8.63;7.83;;;;;;;37.24;15.64;98908.56;6947424;28;20234;-84
2023/07/07 12:49:18;;;;;;;9.00;7.67;;;;;;;36.91;16.12;98922.41;6947045;28;20928;-84
2023/07/07 12:52:42;;;;;;;9.50;7.60;;;;;;;37.07;15.83;98911.06;6946392;28;20560;-84
2023/07/07 12:56:14;;;;;;;9.07;7.47;;;;;;;36.79;15.27;98907.75;6946361;28;20242;-84
2023/07/07 12:59:37;;;;;;;8.33;7.43;;;;;;;37.29;14.58;98915.84;6946200;28;20255;-84
2023/07/07 13:03:13;;;;;;;8.40;7.50;;;;;;;37.14;15.04;98899.97;6929676;28;20203;-84
2023/07/07 13:06:36;;;;;;;8.33;7.53;;;;;;;37.01;15.55;98892.88;6945601;28;20289;-85
2023/07/07 13:10:02;;;;;;;9.80;7.33;;;;;;;38.05;14.83;98904.97;6946432;28;20228;-84
2023/07/07 13:13:27;;;;;;;7.90;7.17;;;;;;;37.07;14.99;98892.16;6945621;28;20199;-85
2023/07/07 13:16:48;;;;;;;8.37;7.50;;;;;;;36.96;14.70;98829.31;6946091;28;20230;-84
2023/07/07 13:20:14;;;;;;;9.13;7.37;;;;;;;37.59;14.16;98855.66;6947489;28;20199;-84
2023/07/07 13:23:37;;;;;;;8.20;7.40;;;;;;;38.40;13.47;98891.28;6947579;28;20272;-85
2023/07/07 13:26:58;;;;;;;7.83;7.03;;;;;;;37.53;14.65;98882.50;6947870;28;20276;-84
2023/07/07 13:30:26;;;;;;;8.83;7.27;;;;;;;37.26;14.33;98885.69;6952074;28;20293;-84
2023/07/07 13:33:48;;;;;;;8.03;7.30;;;;;;;37.35;13.79;98863.69;6968819;28;20780;-83
2023/07/07 13:37:11;;;;;;;9.47;7.17;;;;;;;37.27;14.39;98874.06;6967140;28;20304;-84
2023/07/07 13:40:34;;;;;;;9.40;6.90;;;;;;;37.59;13.97;98866.09;6966772;28;20206;-83
2023/07/07 13:43:56;;;;;;;9.27;7.70;;;;;;;36.39;14.85;98879.28;6955333;28;20286;-82
2023/07/07 13:47:19;;;;;;;8.23;7.43;;;;;;;36.22;14.48;98841.25;6947905;28;20324;-84
2023/07/07 13:50:40;;;;;;;26.20;20.77;;;;;;;37.13;14.78;98882.25;6948248;28;20203;-82
2023/07/07 13:54:04;;;;;;;9.37;7.53;;;;;;;37.01;14.64;98874.00;6948741;28;20290;-83
2023/07/07 13:57:28;;;;;;;10.30;7.67;;;;;;;35.55;14.95;98875.47;6929396;28;20304;-85
2023/07/07 14:00:58;;;;;;;7.40;6.70;;;;;;;36.63;14.63;98860.09;6948185;28;20207;-82
2023/07/07 14:04:24;;;;;;;8.67;7.30;;;;;;;35.35;15.09;98854.19;6948934;28;20222;-82
2023/07/07 14:07:48;;;;;;;8.60;6.97;;;;;;;35.85;16.06;98854.09;6943013;28;20280;-82
2023/07/07 14:11:17;;;;;;;11.23;7.40;;;;;;;36.15;15.54;98857.13;6920443;28;20208;-81
2023/07/07 14:14:39;;;;;;;7.37;6.63;;;;;;;37.11;14.30;98828.41;6940586;28;20338;-82
2023/07/07 14:18:02;;;;;;;9.17;7.17;;;;;;;37.48;14.30;98857.47;6943060;28;20733;-82
2023/07/07 14:21:25;;;;;;;8.53;7.50;;;;;;;37.91;13.60;98842.00;6943210;28;20256;-83
2023/07/07 14:24:47;;;;;;;9.03;7.17;;;;;;;36.43;14.72;98838.03;6942711;28;20200;-81
2023/07/07 14:28:14;;;;;;;10.87;7.20;;;;;;;36.95;14.92;98777.09;6942311;28;20318;-79
2023/07/07 14:31:36;;;;;;;7.97;6.63;;;;;;;37.85;14.08;98833.06;6944484;28;20206;-83
2023/07/07 14:34:58;;;;;;;8.20;6.67;;;;;;;38.24;14.25;98840.00;6944076;28;20211;-83
2023/07/07 14:38:29;;;;;;;7.73;6.73;;;;;;;36.86;14.75;98831.97;6942436;28;20680;-83
2023/07/07 14:41:52;;;;;;;8.10;7.30;;;;;;;36.79;15.28;98840.31;6933755;28;20207;-82
2023/07/07 14:45:24;;;;;;;9.13;6.93;;;;;;;37.40;14.65;98830.44;6941839;28;20249;-82
2023/07/07 14:48:49;;;;;;;7.27;6.47;;;;;;;38.18;14.33;98833.09;6940535;28;20313;-82
2023/07/07 14:52:17;;;;;;;7.43;6.70;;;;;;;36.86;14.38;98821.56;6941069;28;20230;-81
2023/07/07 14:55:48;;;;;;;7.60;6.80;;;;;;;36.57;14.69;98827.84;6942251;28;20299;-82
2023/07/07 14:59:17;;;;;;;8.80;7.13;;;;;;;36.19;15.17;98805.47;6940654;28;20227;-81
2023/07/07 15:02:39;;;;;;;8.07;6.30;;;;;;;37.03;14.62;98818.19;6940575;28;20201;-82
2023/07/07 15:06:13;;;;;;;7.07;6.37;;;;;;;37.46;14.19;98817.66;6942603;28;20248;-81
2023/07/07 15:09:36;;;;;;;7.37;6.60;;;;;;;36.94;14.32;98812.03;6943294;28;20227;-81
2023/07/07 15:12:59;;;;;;;8.60;6.67;;;;;;;36.92;15.13;98805.16;6942551;28;20201;-81
2023/07/07 15:16:23;;;;;;;8.73;6.60;;;;;;;37.18;14.68;98755.38;6944036;28;20219;-83
2023/07/07 15:19:45;;;;;;;7.77;6.90;;;;;;;37.28;14.28;98810.16;6943979;28;20281;-83
2023/07/07 15:23:07;;;;;;;9.97;6.80;;;;;;;36.81;14.22;98793.75;6943685;28;20206;-83
2023/07/07 15:26:30;;;;;;;7.17;6.47;;;;;;;36.47;15.31;98803.19;6942532;28;20298;-83
2023/07/07 15:29:53;;;;;;;7.17;6.43;;;;;;;36.41;14.06;98781.38;6953885;28;20225;-83
2023/07/07 15:33:16;;;;;;;7.10;6.40;;;;;;;36.47;14.06;98796.75;6948042;28;20292;-83
2023/07/07 15:36:38;;;;;;;6.67;6.07;;;;;;;37.09;14.39;98802.63;6942725;28;20538;-83
2023/07/07 15:39:59;;;;;;;8.30;6.13;;;;;;;37.17;13.87;98790.31;6947773;28;20206;-83
2023/07/07 15:43:22;;;;;;;6.83;6.07;;;;;;;37.30;13.95;98791.72;6944049;28;20611;-83
2023/07/07 15:46:45;;;;;;;9.07;7.03;;;;;;;36.51;13.63;98781.59;6945414;28;20290;-83
2023/07/07 15:50:11;;;;;;;7.87;6.40;;;;;;;35.33;15.19;98780.00;6947190;28;20231;-83
2023/07/07 15:53:33;;;;;;;7.93;6.67;;;;;;;36.28;14.19;98789.22;6947361;28;20653;-83
2023/07/07 15:56:54;;;;;;;7.00;5.97;;;;;;;36.96;13.61;98792.78;6946905;28;20230;-83
2023/07/07 16:00:24;;;;;;;7.07;6.37;;;;;;;36.77;14.01;98794.88;6948265;28;20205;-83
2023/07/07 16:03:48;;;;;;;6.90;6.13;;;;;;;37.05;13.89;98768.03;6947991;28;20199;-83
2023/07/07 16:07:11;;;;;;;8.30;6.47;;;;;;;36.60;13.81;98739.97;6947631;28;20773;-83